Time;durP1;ratioP1;P1;durP2;ratioP2;P2;SDS_P1;SDS_P2;PMS_P1;PMS_P2;Temp;Humidity;BMP_temperature;BMP_pressure;BME280_temperature;BME280_humidity;BME280_pressure;Samples;Min_cycle;Max_cycle;Signal;HPM_P1;HPM_P2
2023/01/01 00:04:48;;;;;;;146.35;60.40;;;;;;;;;;10441846;28;20037;-70
2023/01/01 00:15:07;;;;;;;82.47;37.22;;;;;;;;;;10424957;28;20444;-75
2023/01/01 00:20:08;;;;;;;196.60;86.18;;;;;;;;;;10414762;28;20030;-71
2023/01/01 00:25:09;;;;;;;188.43;84.55;;;;;;;;;;10424464;28;20379;-77
2023/01/01 00:30:10;;;;;;;196.90;79.85;;;;;;;;;;10439161;28;20027;-76
2023/01/01 00:35:10;;;;;;;188.55;83.88;;;;;;;;;;10438714;28;20031;-71
2023/01/01 00:40:11;;;;;;;187.88;81.80;;;;;;;;;;10440721;28;20060;-75
2023/01/01 00:45:11;;;;;;;173.73;80.47;;;;;;;;;;10441950;28;20025;-71
2023/01/01 00:50:11;;;;;;;99.63;42.88;;;;;;;;;;10441431;28;20769;-78
2023/01/01 00:55:11;;;;;;;65.57;27.40;;;;;;;;;;10440177;28;20075;-76
2023/01/01 01:00:12;;;;;;;42.40;20.85;;;;;;;;;;10444368;28;20083;-76
2023/01/01 01:05:12;;;;;;;46.45;20.05;;;;;;;;;;10448245;28;20103;-77
2023/01/01 01:10:13;;;;;;;44.70;16.57;;;;;;;;;;10446376;28;20891;-72
2023/01/01 01:15:14;;;;;;;25.73;12.00;;;;;;;;;;10447476;28;20271;-76
2023/01/01 01:20:14;;;;;;;29.08;11.57;;;;;;;;;;10447031;28;20104;-76
2023/01/01 01:25:14;;;;;;;23.25;12.05;;;;;;;;;;10462447;28;20017;-76
2023/01/01 01:30:15;;;;;;;28.13;14.00;;;;;;;;;;10447232;28;20024;-75
2023/01/01 01:35:15;;;;;;;25.58;13.07;;;;;;;;;;10446602;28;20021;-76
2023/01/01 01:40:17;;;;;;;28.23;13.73;;;;;;;;;;10463044;28;20049;-77
2023/01/01 01:45:17;;;;;;;30.50;14.77;;;;;;;;;;10447046;28;20032;-76
2023/01/01 01:50:24;;;;;;;35.38;16.90;;;;;;;;;;10445794;28;20032;-76
2023/01/01 01:55:26;;;;;;;34.10;16.65;;;;;;;;;;10427986;28;20033;-72
2023/01/01 02:00:26;;;;;;;48.13;20.98;;;;;;;;;;10445907;28;20032;-76
2023/01/01 02:05:27;;;;;;;41.20;20.90;;;;;;;;;;10445896;28;20017;-75
2023/01/01 02:10:28;;;;;;;49.40;21.33;;;;;;;;;;10427938;28;20021;-75
2023/01/01 02:15:52;;;;;;;31.63;15.95;;;;;;;;;;10445150;28;20486;-78
2023/01/01 02:20:59;;;;;;;35.53;15.73;;;;;;;;;;10445380;28;20076;-80
2023/01/01 02:26:02;;;;;;;33.50;16.42;;;;;;;;;;10445071;28;20017;-80
2023/01/01 02:31:03;;;;;;;44.92;19.10;;;;;;;;;;10444544;28;20402;-76
2023/01/01 02:36:03;;;;;;;49.28;22.00;;;;;;;;;;10445647;28;20120;-77
2023/01/01 02:41:10;;;;;;;53.08;21.65;;;;;;;;;;10444494;28;20045;-78
2023/01/01 02:46:11;;;;;;;76.53;34.03;;;;;;;;;;10443644;28;20079;-77
2023/01/01 02:51:30;;;;;;;69.95;28.77;;;;;;;;;;10444107;28;20036;-70
2023/01/01 02:56:30;;;;;;;73.65;27.58;;;;;;;;;;10443410;28;20021;-77
2023/01/01 03:01:30;;;;;;;98.97;35.15;;;;;;;;;;10442830;28;20024;-77
2023/01/01 03:06:38;;;;;;;91.97;38.13;;;;;;;;;;10442677;28;20021;-78
2023/01/01 03:11:57;;;;;;;95.35;40.05;;;;;;;;;;10443232;28;20032;-75
2023/01/01 03:17:02;;;;;;;93.68;37.67;;;;;;;;;;10441996;28;20021;-72
2023/01/01 03:22:08;;;;;;;78.90;33.13;;;;;;;;;;10440825;28;20021;-71
2023/01/01 03:27:28;;;;;;;84.93;31.90;;;;;;;;;;10441729;28;20013;-75
2023/01/01 03:37:54;;;;;;;89.65;32.67;;;;;;;;;;10443411;28;20465;-77
2023/01/01 03:42:58;;;;;;;51.95;23.35;;;;;;;;;;10442700;28;20096;-79
2023/01/01 03:47:59;;;;;;;79.00;35.15;;;;;;;;;;10441128;28;20017;-74
2023/01/01 03:53:07;;;;;;;48.58;21.15;;;;;;;;;;10441170;28;20036;-77
2023/01/01 03:58:10;;;;;;;30.02;13.90;;;;;;;;;;10441563;28;20024;-78
2023/01/01 04:03:20;;;;;;;28.23;12.95;;;;;;;;;;10441048;28;20017;-76
2023/01/01 04:08:20;;;;;;;35.10;13.35;;;;;;;;;;10441291;28;20025;-75
2023/01/01 04:13:21;;;;;;;32.33;12.38;;;;;;;;;;10441622;28;20020;-75
2023/01/01 04:18:21;;;;;;;28.05;13.05;;;;;;;;;;10441638;28;20032;-76
2023/01/01 04:23:21;;;;;;;27.52;12.90;;;;;;;;;;10415348;28;20029;-75
2023/01/01 04:28:21;;;;;;;26.13;12.70;;;;;;;;;;10431121;28;20120;-74
2023/01/01 04:33:22;;;;;;;27.55;12.43;;;;;;;;;;10439968;28;20023;-73
2023/01/01 04:38:22;;;;;;;37.00;13.15;;;;;;;;;;10429311;28;20053;-71
2023/01/01 04:43:22;;;;;;;38.55;13.63;;;;;;;;;;10440088;28;20108;-74
2023/01/01 04:48:23;;;;;;;34.45;15.25;;;;;;;;;;10440126;28;20024;-71
2023/01/01 04:53:24;;;;;;;29.35;14.18;;;;;;;;;;10439933;28;20055;-76
2023/01/01 04:58:24;;;;;;;50.08;20.17;;;;;;;;;;10439168;28;20886;-77
2023/01/01 05:03:24;;;;;;;57.35;23.88;;;;;;;;;;10438689;28;20163;-76
2023/01/01 05:08:24;;;;;;;47.93;19.70;;;;;;;;;;10439614;28;20024;-75
2023/01/01 05:13:25;;;;;;;29.60;12.55;;;;;;;;;;10439444;28;20686;-76
2023/01/01 05:18:25;;;;;;;26.40;13.05;;;;;;;;;;10438863;28;20405;-76
2023/01/01 05:23:25;;;;;;;31.10;15.25;;;;;;;;;;10437763;28;20094;-78
2023/01/01 05:28:25;;;;;;;28.50;14.18;;;;;;;;;;10438968;28;20036;-70
2023/01/01 05:33:26;;;;;;;30.30;14.32;;;;;;;;;;10439360;28;20495;-72
2023/01/01 05:38:27;;;;;;;31.92;14.20;;;;;;;;;;10422326;28;20052;-77
2023/01/01 05:43:27;;;;;;;28.35;14.15;;;;;;;;;;10438489;28;20028;-76
2023/01/01 05:48:27;;;;;;;33.88;13.60;;;;;;;;;;10446540;28;20416;-77
2023/01/01 05:53:28;;;;;;;25.77;11.93;;;;;;;;;;10446099;28;20020;-76
2023/01/01 05:58:29;;;;;;;27.55;12.93;;;;;;;;;;10446328;28;20546;-73
2023/01/01 06:03:30;;;;;;;29.60;12.00;;;;;;;;;;10449483;28;20017;-77
2023/01/01 06:08:30;;;;;;;26.50;13.38;;;;;;;;;;10421843;28;20036;-71
2023/01/01 06:13:30;;;;;;;27.33;14.63;;;;;;;;;;10447361;28;20021;-75
2023/01/01 06:18:31;;;;;;;29.60;13.70;;;;;;;;;;10462168;28;20279;-76
2023/01/01 06:23:31;;;;;;;38.15;14.70;;;;;;;;;;10442019;28;20053;-78
2023/01/01 06:28:32;;;;;;;30.20;14.27;;;;;;;;;;10433843;28;20017;-79
2023/01/01 06:33:32;;;;;;;31.63;14.90;;;;;;;;;;10438145;28;20033;-76
2023/01/01 06:38:33;;;;;;;32.53;15.20;;;;;;;;;;10443060;28;20060;-74
2023/01/01 06:43:34;;;;;;;24.95;13.07;;;;;;;;;;10444844;28;20447;-77
2023/01/01 06:48:35;;;;;;;29.25;13.18;;;;;;;;;;10442130;28;20025;-76
2023/01/01 06:53:36;;;;;;;29.60;13.60;;;;;;;;;;10420531;28;20067;-77
2023/01/01 06:58:36;;;;;;;31.05;13.73;;;;;;;;;;10415415;28;20032;-80
2023/01/01 07:03:37;;;;;;;30.52;14.30;;;;;;;;;;10437870;28;20041;-72
2023/01/01 07:08:37;;;;;;;38.63;15.00;;;;;;;;;;10440250;28;20644;-78
2023/01/01 07:13:37;;;;;;;37.50;16.07;;;;;;;;;;10424630;28;20025;-77
2023/01/01 07:18:38;;;;;;;33.38;16.38;;;;;;;;;;10433824;28;20021;-80
2023/01/01 07:23:38;;;;;;;30.97;14.87;;;;;;;;;;10439793;28;20071;-74
2023/01/01 07:28:38;;;;;;;37.53;15.95;;;;;;;;;;10438208;28;20620;-80
2023/01/01 07:33:38;;;;;;;32.22;14.63;;;;;;;;;;10441425;28;20506;-72
2023/01/01 07:38:39;;;;;;;40.50;18.52;;;;;;;;;;10445985;28;20400;-77
2023/01/01 07:43:39;;;;;;;61.50;22.90;;;;;;;;;;10439827;28;20379;-78
2023/01/01 07:48:39;;;;;;;74.83;31.30;;;;;;;;;;10445411;28;20447;-80
2023/01/01 07:53:39;;;;;;;90.40;37.50;;;;;;;;;;10430168;28;20021;-81
2023/01/01 07:58:40;;;;;;;63.60;25.13;;;;;;;;;;10433658;28;20029;-79
2023/01/01 08:03:40;;;;;;;93.68;38.47;;;;;;;;;;10439077;28;20115;-76
2023/01/01 08:08:41;;;;;;;89.45;37.70;;;;;;;;;;10438025;28;20024;-73
2023/01/01 08:13:41;;;;;;;123.57;50.88;;;;;;;;;;10434128;28;20107;-76
2023/01/01 08:18:41;;;;;;;115.65;49.75;;;;;;;;;;10423375;28;20033;-76
2023/01/01 08:23:41;;;;;;;106.60;47.85;;;;;;;;;;10434630;28;20032;-77
2023/01/01 08:28:42;;;;;;;106.47;48.60;;;;;;;;;;10435636;28;20024;-76
2023/01/01 08:33:43;;;;;;;111.90;48.55;;;;;;;;;;10436569;28;20040;-75
2023/01/01 08:38:43;;;;;;;110.72;47.25;;;;;;;;;;10432041;28;20057;-72
2023/01/01 08:43:43;;;;;;;115.57;53.80;;;;;;;;;;10434584;28;20033;-73
2023/01/01 08:48:43;;;;;;;100.78;51.60;;;;;;;;;;10436520;28;20029;-77
2023/01/01 08:53:44;;;;;;;110.43;51.80;;;;;;;;;;10441647;28;20064;-78
2023/01/01 08:58:44;;;;;;;89.35;42.33;;;;;;;;;;10439261;28;20925;-77
2023/01/01 09:03:45;;;;;;;94.93;41.57;;;;;;;;;;10424960;28;20447;-78
2023/01/01 09:08:45;;;;;;;78.53;40.67;;;;;;;;;;10428746;28;20021;-73
2023/01/01 09:13:45;;;;;;;85.40;43.50;;;;;;;;;;10426285;28;20044;-78
2023/01/01 09:18:45;;;;;;;90.25;42.88;;;;;;;;;;10434716;28;20029;-73
2023/01/01 09:23:46;;;;;;;86.00;41.13;;;;;;;;;;10442832;28;20025;-76
2023/01/01 09:28:46;;;;;;;74.13;38.45;;;;;;;;;;10443665;28;20037;-72
2023/01/01 09:33:46;;;;;;;77.15;37.70;;;;;;;;;;10443449;28;20021;-75
2023/01/01 09:38:50;;;;;;;74.63;36.22;;;;;;;;;;10442022;28;20049;-75
2023/01/01 09:43:50;;;;;;;68.00;35.03;;;;;;;;;;10434951;28;20032;-72
2023/01/01 09:48:53;;;;;;;70.38;34.90;;;;;;;;;;10449484;28;20029;-77
2023/01/01 09:53:56;;;;;;;74.97;36.92;;;;;;;;;;10445729;28;20032;-78
2023/01/01 09:59:00;;;;;;;69.88;35.50;;;;;;;;;;10447925;28;20021;-79
2023/01/01 10:04:15;;;;;;;74.90;38.83;;;;;;;;;;10444389;28;20168;-78
2023/01/01 10:09:30;;;;;;;63.85;34.55;;;;;;;;;;10443448;28;20033;-78
2023/01/01 10:14:34;;;;;;;68.80;32.17;;;;;;;;;;10443526;28;20032;-79
2023/01/01 10:19:41;;;;;;;62.15;31.48;;;;;;;;;;10441802;28;20040;-79
2023/01/01 10:24:45;;;;;;;59.33;31.02;;;;;;;;;;10441656;28;20082;-78
2023/01/01 10:29:48;;;;;;;53.00;29.77;;;;;;;;;;10450124;28;20024;-77
2023/01/01 10:34:49;;;;;;;47.80;25.98;;;;;;;;;;10443424;28;20037;-79
2023/01/01 10:39:50;;;;;;;48.97;27.38;;;;;;;;;;10455048;28;20477;-79
2023/01/01 10:44:51;;;;;;;47.10;26.90;;;;;;;;;;10451973;28;20070;-78
2023/01/01 10:49:55;;;;;;;45.60;24.10;;;;;;;;;;10431840;28;20025;-76
2023/01/01 10:54:56;;;;;;;42.90;22.90;;;;;;;;;;10434752;28;20024;-78
2023/01/01 11:00:09;;;;;;;47.58;24.08;;;;;;;;;;10440322;28;20051;-75
2023/01/01 11:05:12;;;;;;;48.55;25.98;;;;;;;;;;10447708;28;20016;-77
2023/01/01 11:10:20;;;;;;;53.30;26.35;;;;;;;;;;10437362;28;20028;-76
2023/01/01 11:15:20;;;;;;;;;;;;;;;;;;10441163;28;20048;-78
2023/01/01 11:20:20;;;;;;;48.92;26.90;;;;;;;;;;10420484;28;20396;-79
2023/01/01 11:25:28;;;;;;;45.47;23.20;;;;;;;;;;10435562;28;20045;-77
2023/01/01 11:30:28;;;;;;;;;;;;;;;;;;10434167;28;20328;-75
2023/01/01 11:35:35;;;;;;;40.35;21.17;;;;;;;;;;10437254;28;20352;-77
2023/01/01 11:40:37;;;;;;;33.05;19.40;;;;;;;;;;10417839;28;20048;-76
2023/01/01 11:45:41;;;;;;;43.70;20.88;;;;;;;;;;10431925;28;20052;-79
2023/01/01 11:50:51;;;;;;;37.15;19.23;;;;;;;;;;10401434;28;20091;-71
2023/01/01 11:56:01;;;;;;;36.08;19.45;;;;;;;;;;10401750;28;20020;-77
2023/01/01 12:01:03;;;;;;;33.03;17.83;;;;;;;;;;10414522;28;20117;-77
2023/01/01 12:06:07;;;;;;;39.10;19.85;;;;;;;;;;10421563;28;20052;-76
2023/01/01 12:11:24;;;;;;;41.33;19.08;;;;;;;;;;10431474;28;20029;-77
2023/01/01 12:16:45;;;;;;;36.08;20.23;;;;;;;;;;10440102;28;20025;-77
2023/01/01 12:21:47;;;;;;;38.67;20.13;;;;;;;;;;10438070;28;20028;-74
2023/01/01 12:26:54;;;;;;;36.25;19.20;;;;;;;;;;10423265;28;20072;-76
2023/01/01 12:32:07;;;;;;;41.42;20.80;;;;;;;;;;10428812;28;20032;-77
2023/01/01 12:37:07;;;;;;;42.40;20.00;;;;;;;;;;10427209;28;20084;-78
2023/01/01 12:42:08;;;;;;;44.30;20.67;;;;;;;;;;10425595;28;20071;-77
2023/01/01 12:47:26;;;;;;;49.53;22.90;;;;;;;;;;10423219;28;20024;-77
2023/01/01 12:52:39;;;;;;;41.47;21.80;;;;;;;;;;10433106;28;20025;-75
2023/01/01 12:57:43;;;;;;;53.08;23.27;;;;;;;;;;10435031;28;20028;-76
2023/01/01 13:03:02;;;;;;;45.83;23.30;;;;;;;;;;10438937;28;20025;-71
2023/01/01 13:08:03;;;;;;;52.28;23.85;;;;;;;;;;10438338;28;20025;-75
2023/01/01 13:13:04;;;;;;;52.92;25.30;;;;;;;;;;10444554;28;20558;-77
2023/01/01 13:18:06;;;;;;;49.88;24.60;;;;;;;;;;10452995;28;20108;-72
2023/01/01 13:23:25;;;;;;;46.10;22.77;;;;;;;;;;10445977;28;20449;-77
2023/01/01 13:28:25;;;;;;;53.53;24.38;;;;;;;;;;10418719;28;20570;-73
2023/01/01 13:33:30;;;;;;;49.33;23.33;;;;;;;;;;10438055;28;20016;-72
2023/01/01 13:38:46;;;;;;;48.72;22.98;;;;;;;;;;10446679;28;20055;-77
2023/01/01 13:43:46;;;;;;;53.35;22.35;;;;;;;;;;10425888;28;20402;-75
2023/01/01 13:48:54;;;;;;;50.83;23.75;;;;;;;;;;10455915;28;20029;-76
2023/01/01 13:54:13;;;;;;;49.67;22.73;;;;;;;;;;10448462;28;20085;-78
2023/01/01 13:59:26;;;;;;;55.03;24.65;;;;;;;;;;10419743;22;20042;-76
2023/01/01 14:04:26;;;;;;;54.13;24.02;;;;;;;;;;10387979;28;20096;-75
2023/01/01 14:09:26;;;;;;;50.75;22.40;;;;;;;;;;10396356;28;20060;-75
2023/01/01 14:14:27;;;;;;;46.72;23.15;;;;;;;;;;10395404;28;20026;-73
2023/01/01 14:19:28;;;;;;;50.60;24.08;;;;;;;;;;10362824;28;20503;-75
2023/01/01 14:24:28;;;;;;;57.10;26.45;;;;;;;;;;10361595;28;20098;-76
2023/01/01 14:29:29;;;;;;;55.40;27.37;;;;;;;;;;10378076;28;20477;-76
2023/01/01 14:34:30;;;;;;;51.97;26.52;;;;;;;;;;10339674;28;20019;-73
2023/01/01 14:39:32;;;;;;;58.65;26.88;;;;;;;;;;10360448;28;20026;-72
2023/01/01 14:44:34;;;;;;;53.38;25.33;;;;;;;;;;10330067;28;20021;-76
2023/01/01 14:49:37;;;;;;;59.22;27.27;;;;;;;;;;10349205;28;20033;-75
2023/01/01 14:54:40;;;;;;;61.78;27.38;;;;;;;;;;10376436;28;20030;-76
2023/01/01 14:59:47;;;;;;;52.75;24.63;;;;;;;;;;10345566;28;20500;-76
2023/01/01 15:04:47;;;;;;;61.83;24.07;;;;;;;;;;10365088;28;20026;-79
2023/01/01 15:09:49;;;;;;;50.90;25.30;;;;;;;;;;10345968;28;20025;-76
2023/01/01 15:14:50;;;;;;;59.33;27.23;;;;;;;;;;10352259;28;20505;-73
2023/01/01 15:20:01;;;;;;;63.40;27.00;;;;;;;;;;10305927;28;20030;-73
2023/01/01 15:25:01;;;;;;;54.42;27.00;;;;;;;;;;10320709;28;20037;-78
2023/01/01 15:30:05;;;;;;;55.63;24.92;;;;;;;;;;10335430;23;20054;-78
2023/01/01 15:35:16;;;;;;;73.10;32.47;;;;;;;;;;10364179;28;20485;-76
2023/01/01 15:40:17;;;;;;;66.50;29.77;;;;;;;;;;10354135;28;20112;-76
2023/01/01 15:45:26;;;;;;;64.55;28.38;;;;;;;;;;10359383;28;20588;-75
2023/01/01 15:50:29;;;;;;;68.20;29.35;;;;;;;;;;10352755;28;20458;-73
2023/01/01 15:55:32;;;;;;;72.57;30.58;;;;;;;;;;10355626;28;20495;-78
2023/01/01 16:00:35;;;;;;;67.70;28.23;;;;;;;;;;10355661;28;20049;-76
2023/01/01 16:05:35;;;;;;;61.78;28.55;;;;;;;;;;10355260;28;20477;-73
2023/01/01 16:10:35;;;;;;;67.05;30.80;;;;;;;;;;10363767;28;20030;-79
2023/01/01 16:15:36;;;;;;;66.07;31.33;;;;;;;;;;10354980;28;20080;-75
2023/01/01 16:20:36;;;;;;;58.80;30.58;;;;;;;;;;10357131;28;20593;-73
2023/01/01 16:25:37;;;;;;;68.80;28.98;;;;;;;;;;10348871;28;20054;-78
2023/01/01 16:30:37;;;;;;;65.43;28.83;;;;;;;;;;10313204;28;20078;-76
2023/01/01 16:35:37;;;;;;;65.30;29.85;;;;;;;;;;10317070;28;20121;-75
2023/01/01 16:40:38;;;;;;;73.03;29.73;;;;;;;;;;10298743;28;20109;-78
2023/01/01 16:45:39;;;;;;;64.63;28.13;;;;;;;;;;10300779;28;20070;-77
2023/01/01 16:50:39;;;;;;;66.83;28.43;;;;;;;;;;10315987;28;20114;-75
2023/01/01 16:55:40;;;;;;;80.63;30.85;;;;;;;;;;10301218;28;20038;-78
2023/01/01 17:00:40;;;;;;;81.80;29.80;;;;;;;;;;10302274;28;20033;-75
2023/01/01 17:05:40;;;;;;;80.57;29.77;;;;;;;;;;10305438;28;20022;-75
2023/01/01 17:10:41;;;;;;;57.85;26.10;;;;;;;;;;10316296;28;20037;-72
2023/01/01 17:15:41;;;;;;;57.17;24.17;;;;;;;;;;10295443;28;20141;-78
2023/01/01 17:20:41;;;;;;;53.85;24.17;;;;;;;;;;10303935;28;20523;-74
2023/01/01 17:25:41;;;;;;;60.50;27.25;;;;;;;;;;10297501;28;20595;-73
2023/01/01 17:30:42;;;;;;;54.13;23.38;;;;;;;;;;10296881;28;20436;-78
2023/01/01 17:35:42;;;;;;;54.42;23.42;;;;;;;;;;10293775;28;20125;-77
2023/01/01 17:40:42;;;;;;;51.63;22.88;;;;;;;;;;10294727;28;20431;-76
2023/01/01 17:45:42;;;;;;;61.22;24.90;;;;;;;;;;10316604;28;20031;-75
2023/01/01 17:50:43;;;;;;;57.50;23.05;;;;;;;;;;10343409;28;20113;-78
2023/01/01 17:55:44;;;;;;;25.25;11.70;;;;;;;;;;10344388;28;20030;-73
2023/01/01 18:00:44;;;;;;;51.60;19.57;;;;;;;;;;10314287;28;20027;-73
2023/01/01 18:05:44;;;;;;;61.45;25.20;;;;;;;;;;10361363;28;20026;-79
2023/01/01 18:10:51;;;;;;;55.47;20.00;;;;;;;;;;10342472;28;20137;-78
2023/01/01 18:15:52;;;;;;;44.97;18.83;;;;;;;;;;10323854;28;20101;-77
2023/01/01 18:20:59;;;;;;;17.90;8.90;;;;;;;;;;10345708;28;20123;-75
2023/01/01 18:26:00;;;;;;;22.50;8.83;;;;;;;;;;10343056;28;20304;-78
2023/01/01 18:31:08;;;;;;;49.92;20.55;;;;;;;;;;10335770;28;20120;-77
2023/01/01 18:36:12;;;;;;;58.60;22.08;;;;;;;;;;10331355;28;20053;-78
2023/01/01 18:41:31;;;;;;;51.50;25.05;;;;;;;;;;10339772;28;20026;-75
2023/01/01 18:46:32;;;;;;;51.45;25.08;;;;;;;;;;10300884;28;20092;-75
2023/01/01 18:51:32;;;;;;;68.90;32.78;;;;;;;;;;10306860;28;20393;-75
2023/01/01 18:56:32;;;;;;;51.33;25.38;;;;;;;;;;10306389;28;20054;-73
2023/01/01 19:01:33;;;;;;;53.67;24.80;;;;;;;;;;10314012;28;20027;-75
2023/01/01 19:06:33;;;;;;;42.25;20.73;;;;;;;;;;10318525;28;20030;-77
2023/01/01 19:11:35;;;;;;;53.22;23.75;;;;;;;;;;10307025;28;20116;-76
2023/01/01 19:16:35;;;;;;;52.72;23.25;;;;;;;;;;10289975;28;20520;-78
2023/01/01 19:21:35;;;;;;;56.13;22.63;;;;;;;;;;10317117;28;20119;-73
2023/01/01 19:26:40;;;;;;;51.28;23.38;;;;;;;;;;10311421;28;20564;-73
2023/01/01 19:31:40;;;;;;;58.65;27.05;;;;;;;;;;10308526;28;20054;-74
2023/01/01 19:36:41;;;;;;;47.67;23.37;;;;;;;;;;10310922;28;20207;-77
2023/01/01 19:41:41;;;;;;;51.33;22.50;;;;;;;;;;10314337;28;20030;-78
2023/01/01 19:46:41;;;;;;;51.80;24.97;;;;;;;;;;10312268;28;20026;-78
2023/01/01 19:51:42;;;;;;;54.10;25.10;;;;;;;;;;10318952;28;20085;-77
2023/01/01 19:56:43;;;;;;;45.88;24.52;;;;;;;;;;10312912;28;20038;-77
2023/01/01 20:01:43;;;;;;;50.80;24.42;;;;;;;;;;10295730;28;20084;-73
2023/01/01 20:06:43;;;;;;;53.15;26.85;;;;;;;;;;10301429;28;20501;-73
2023/01/01 20:11:44;;;;;;;63.90;28.40;;;;;;;;;;10309612;28;20042;-75
2023/01/01 20:16:44;;;;;;;69.07;28.75;;;;;;;;;;10301687;28;20034;-75
2023/01/01 20:27:03;;;;;;;78.97;29.52;;;;;;;;;;10302464;28;20466;-73
2023/01/01 20:32:03;;;;;;;62.63;32.33;;;;;;;;;;10308343;28;20125;-72
2023/01/01 20:42:23;;;;;;;68.90;28.60;;;;;;;;;;10306738;28;20050;-73
2023/01/01 20:47:23;;;;;;;63.20;30.43;;;;;;;;;;10316502;28;20027;-75
2023/01/01 20:52:23;;;;;;;76.78;33.53;;;;;;;;;;10322867;28;20030;-73
2023/01/01 20:57:24;;;;;;;75.17;31.77;;;;;;;;;;10307431;28;20029;-78
2023/01/01 21:02:24;;;;;;;67.97;30.25;;;;;;;;;;10301728;28;20270;-74
2023/01/01 21:07:24;;;;;;;56.58;28.15;;;;;;;;;;10304747;28;20028;-79
2023/01/01 21:12:24;;;;;;;58.67;27.40;;;;;;;;;;10319246;28;20200;-75
2023/01/01 21:17:26;;;;;;;66.50;30.10;;;;;;;;;;10323608;28;20026;-78
2023/01/01 21:22:26;;;;;;;53.88;27.80;;;;;;;;;;10314994;28;20026;-72
2023/01/01 21:27:30;;;;;;;70.95;27.75;;;;;;;;;;10310487;28;20026;-75
2023/01/01 21:32:41;;;;;;;70.53;28.73;;;;;;;;;;10310836;28;20117;-75
2023/01/01 21:37:51;;;;;;;60.30;28.60;;;;;;;;;;10323311;28;20032;-77
2023/01/01 21:42:53;;;;;;;62.53;27.17;;;;;;;;;;10314467;28;20477;-79
2023/01/01 21:47:53;;;;;;;37.03;16.63;;;;;;;;;;10307253;28;20092;-77
2023/01/01 21:53:00;;;;;;;38.80;21.70;;;;;;;;;;10307184;28;20048;-75
2023/01/01 21:59:24;;;;;;;37.08;14.48;;;;;;;;;;10328928;28;20152;-75
2023/01/01 22:03:21;;;;;;;19.83;10.13;;;;;;;;;;10318931;28;20027;-76
2023/01/01 22:08:23;;;;;;;19.27;9.15;;;;;;;;;;10319121;28;20030;-77
2023/01/01 22:13:24;;;;;;;17.17;7.95;;;;;;;;;;10310015;28;20104;-76
2023/01/01 22:18:25;;;;;;;19.30;8.48;;;;;;;;;;10323358;28;20459;-76
2023/01/01 22:23:28;;;;;;;13.75;7.60;;;;;;;;;;10317895;28;20022;-76
2023/01/01 22:28:35;;;;;;;15.43;8.13;;;;;;;;;;10312584;28;20022;-74
2023/01/01 22:33:37;;;;;;;17.93;8.60;;;;;;;;;;10310722;28;20104;-79
2023/01/01 22:38:37;;;;;;;18.55;9.80;;;;;;;;;;10324154;28;20117;-73
2023/01/01 22:43:40;;;;;;;15.82;8.00;;;;;;;;;;10312707;28;20030;-77
2023/01/01 22:48:40;;;;;;;15.90;7.50;;;;;;;;;;10318259;28;20034;-73
2023/01/01 22:53:40;;;;;;;17.07;8.40;;;;;;;;;;10314085;28;20081;-76
2023/01/01 22:58:40;;;;;;;18.53;8.43;;;;;;;;;;10295254;28;20037;-74
2023/01/01 23:03:41;;;;;;;16.40;7.83;;;;;;;;;;10318705;28;20022;-73
2023/01/01 23:08:41;;;;;;;19.50;8.32;;;;;;;;;;10322193;28;20554;-73
2023/01/01 23:19:01;;;;;;;19.73;9.10;;;;;;;;;;10315018;28;20475;-74
2023/01/01 23:24:03;;;;;;;17.02;8.40;;;;;;;;;;10313038;28;20055;-77
2023/01/01 23:29:03;;;;;;;19.52;8.93;;;;;;;;;;10321268;28;20545;-79
2023/01/01 23:34:03;;;;;;;19.85;9.18;;;;;;;;;;10315535;28;20050;-74
2023/01/01 23:39:04;;;;;;;17.37;8.63;;;;;;;;;;10281136;28;20042;-77
2023/01/01 23:44:04;;;;;;;15.70;9.15;;;;;;;;;;10298003;28;20731;-75
2023/01/01 23:49:05;;;;;;;19.13;8.95;;;;;;;;;;10317490;28;20377;-73
2023/01/01 23:54:05;;;;;;;17.38;8.57;;;;;;;;;;10309343;28;20480;-77
2023/01/01 23:59:05;;;;;;;18.98;9.55;;;;;;;;;;10309713;28;20468;-75
